Time;durP1;ratioP1;P1;durP2;ratioP2;P2;SDS_P1;SDS_P2;PMS_P1;PMS_P2;Temp;Humidity;BMP_temperature;BMP_pressure;BME280_temperature;BME280_humidity;BME280_pressure;Samples;Min_cycle;Max_cycle;Signal;HPM_P1;HPM_P2
2022/05/01 00:00:27;;;;;;;;;;;15.70;66.50;;;;;;5093461;28;19999;-89
2022/05/01 00:02:53;;;;;;;;;;;15.70;66.10;;;;;;5053389;28;19999;-88
2022/05/01 00:05:19;;;;;;;;;;;15.70;65.60;;;;;;5053398;28;19948;-89
2022/05/01 00:07:45;;;;;;;;;;;15.60;65.50;;;;;;5053333;28;19909;-88
2022/05/01 00:10:10;;;;;;;;;;;15.60;65.30;;;;;;5053126;28;19913;-88
2022/05/01 00:12:36;;;;;;;;;;;15.70;64.80;;;;;;5088870;28;20267;-88
2022/05/01 00:15:02;;;;;;;;;;;15.70;64.40;;;;;;5093498;28;19995;-88
2022/05/01 00:17:28;;;;;;;;;;;15.80;64.00;;;;;;5093432;28;19939;-88
2022/05/01 00:19:55;;;;;;;;;;;15.80;63.70;;;;;;5093369;28;20446;-88
2022/05/01 00:22:21;;;;;;;;;;;15.80;64.00;;;;;;5093134;28;19952;-88
2022/05/01 00:24:46;;;;;;;;;;;15.80;64.60;;;;;;5093118;28;19908;-88
2022/05/01 00:27:12;;;;;;;;;;;15.80;65.00;;;;;;5093287;28;19908;-89
2022/05/01 00:29:38;;;;;;;;;;;15.80;65.10;;;;;;5093026;28;19920;-89
2022/05/01 00:32:05;;;;;;;;;;;15.80;64.50;;;;;;5080061;28;19919;-88
2022/05/01 00:37:14;;;;;;;;;;;15.80;63.80;;;;;;5072943;28;19962;-89
2022/05/01 00:39:40;;;;;;;;;;;15.80;63.80;;;;;;5072972;28;20324;-89
2022/05/01 00:42:05;;;;;;;;;;;15.80;65.00;;;;;;5085464;28;20145;-88
2022/05/01 00:44:31;;;;;;;;;;;15.90;66.30;;;;;;5093141;28;19908;-88
2022/05/01 00:46:59;;;;;;;;;;;15.90;65.10;;;;;;5093149;28;19951;-88
2022/05/01 00:49:26;;;;;;;;;;;15.80;67.10;;;;;;5093067;28;19955;-88
2022/05/01 00:51:59;;;;;;;;;;;15.80;65.50;;;;;;5082409;28;19934;-89
2022/05/01 00:54:25;;;;;;;;;;;15.80;63.40;;;;;;5072892;28;19919;-88
2022/05/01 00:56:52;;;;;;;;;;;15.80;63.50;;;;;;5072845;28;19958;-89
2022/05/01 00:59:18;;;;;;;;;;;15.80;63.40;;;;;;5072874;28;19916;-89
2022/05/01 01:01:44;;;;;;;;;;;15.80;63.80;;;;;;5081672;28;20374;-88
2022/05/01 01:04:10;;;;;;;;;;;15.80;64.20;;;;;;5092919;28;19908;-88
2022/05/01 01:06:39;;;;;;;;;;;15.80;64.30;;;;;;5091673;28;20274;-88
2022/05/01 01:09:06;;;;;;;;;;;15.70;66.80;;;;;;5092790;28;19951;-88
2022/05/01 01:11:31;;;;;;;;;;;15.50;67.00;;;;;;5091120;28;19998;-88
2022/05/01 01:13:58;;;;;;;;;;;15.30;69.20;;;;;;5092841;28;19924;-88
2022/05/01 01:16:23;;;;;;;;;;;15.10;72.90;;;;;;5092919;28;19908;-88
2022/05/01 01:18:49;;;;;;;;;;;15.00;71.90;;;;;;5088533;28;19912;-88
2022/05/01 01:21:15;;;;;;;;;;;14.90;72.50;;;;;;5072649;28;19912;-88
2022/05/01 01:23:41;;;;;;;;;;;14.80;71.50;;;;;;5072633;28;19944;-88
2022/05/01 01:26:08;;;;;;;;;;;14.80;71.60;;;;;;5071257;28;20413;-89
2022/05/01 01:28:34;;;;;;;;;;;14.70;70.80;;;;;;5076127;28;19954;-88
2022/05/01 01:33:47;;;;;;;;;;;14.60;69.20;;;;;;5092950;28;20003;-88
2022/05/01 01:36:14;;;;;;;;;;;14.50;68.50;;;;;;5092707;28;19908;-88
2022/05/01 01:38:40;;;;;;;;;;;14.50;67.90;;;;;;5092144;28;19946;-89
2022/05/01 01:41:08;;;;;;;;;;;14.50;68.00;;;;;;5076018;28;20401;-88
2022/05/01 01:43:36;;;;;;;;;;;14.50;67.80;;;;;;5076013;28;19908;-88
2022/05/01 01:46:01;;;;;;;;;;;14.50;67.50;;;;;;5076287;28;19952;-88
2022/05/01 01:48:27;;;;;;;;;;;14.50;67.50;;;;;;5077316;28;19959;-88
2022/05/01 01:50:59;;;;;;;;;;;14.50;67.40;;;;;;5095968;28;20346;-88
2022/05/01 01:53:25;;;;;;;;;;;14.60;66.60;;;;;;5096389;28;19973;-88
2022/05/01 01:55:51;;;;;;;;;;;14.60;66.60;;;;;;5096587;28;19964;-88
2022/05/01 01:58:18;;;;;;;;;;;14.70;67.80;;;;;;5095589;28;19915;-88
2022/05/01 02:00:44;;;;;;;;;;;14.70;67.90;;;;;;5080592;28;19998;-88
2022/05/01 02:03:09;;;;;;;;;;;14.70;67.60;;;;;;5095929;28;19996;-88
2022/05/01 02:05:35;;;;;;;;;;;14.60;66.40;;;;;;5095808;28;20406;-89
2022/05/01 02:08:01;;;;;;;;;;;14.60;66.90;;;;;;5095795;28;19916;-88
2022/05/01 02:10:26;;;;;;;;;;;14.60;67.70;;;;;;5077463;28;19957;-88
2022/05/01 02:12:52;;;;;;;;;;;14.50;67.70;;;;;;5075474;28;19956;-88
2022/05/01 02:15:17;;;;;;;;;;;14.60;65.70;;;;;;5075425;28;19909;-88
2022/05/01 02:17:44;;;;;;;;;;;14.70;66.90;;;;;;5075381;28;19916;-88
2022/05/01 02:20:10;;;;;;;;;;;14.80;68.00;;;;;;5090338;28;20045;-88
2022/05/01 02:22:36;;;;;;;;;;;14.80;68.20;;;;;;5095785;28;20277;-89
2022/05/01 02:25:02;;;;;;;;;;;14.70;68.90;;;;;;5095784;28;19990;-88
2022/05/01 02:27:28;;;;;;;;;;;14.70;69.10;;;;;;5095439;28;19974;-89
2022/05/01 02:29:54;;;;;;;;;;;14.70;70.60;;;;;;5082055;28;20323;-88
2022/05/01 02:32:20;;;;;;;;;;;14.70;71.70;;;;;;5074946;28;19913;-89
2022/05/01 02:34:45;;;;;;;;;;;14.60;72.60;;;;;;5073694;28;20279;-88
2022/05/01 02:37:11;;;;;;;;;;;14.50;73.20;;;;;;5075000;28;19908;-88
2022/05/01 02:39:37;;;;;;;;;;;14.50;72.60;;;;;;5084793;28;19981;-88
2022/05/01 02:42:03;;;;;;;;;;;14.30;73.90;;;;;;5094810;28;19992;-89
2022/05/01 02:44:28;;;;;;;;;;;14.30;75.30;;;;;;5095021;28;19908;-89
2022/05/01 02:46:54;;;;;;;;;;;14.30;76.00;;;;;;5095557;28;20239;-88
2022/05/01 02:49:21;;;;;;;;;;;14.30;74.70;;;;;;5094302;28;20354;-89
2022/05/01 02:51:47;;;;;;;;;;;14.30;75.10;;;;;;5094953;28;19987;-89
2022/05/01 02:54:13;;;;;;;;;;;14.30;74.70;;;;;;5094851;28;20309;-89
2022/05/01 02:56:38;;;;;;;;;;;14.30;72.50;;;;;;5094793;28;19914;-89
2022/05/01 02:59:09;;;;;;;;;;;14.40;71.90;;;;;;5089794;28;19958;-89
2022/05/01 03:01:35;;;;;;;;;;;14.40;71.80;;;;;;5074515;28;20370;-88
2022/05/01 03:04:01;;;;;;;;;;;14.30;71.60;;;;;;5074470;28;19909;-88
2022/05/01 03:06:26;;;;;;;;;;;14.20;74.00;;;;;;5074401;28;19908;-88
2022/05/01 03:08:52;;;;;;;;;;;14.20;74.50;;;;;;5077159;28;20026;-88
2022/05/01 03:11:18;;;;;;;;;;;14.10;74.80;;;;;;5094535;28;19997;-88
2022/05/01 03:13:44;;;;;;;;;;;14.10;74.50;;;;;;5094529;28;19909;-89
2022/05/01 03:16:09;;;;;;;;;;;14.10;75.10;;;;;;5094513;28;19930;-88
2022/05/01 03:24:04;;;;;;;;;;;14.00;76.20;;;;;;5074108;28;20345;-88
2022/05/01 03:26:29;;;;;;;;;;;14.00;74.50;;;;;;5074051;28;20424;-88
2022/05/01 03:28:55;;;;;;;;;;;14.00;73.40;;;;;;5076847;28;19912;-88
2022/05/01 03:31:20;;;;;;;;;;;14.00;73.70;;;;;;5094090;28;19916;-88
2022/05/01 03:33:47;;;;;;;;;;;14.00;74.10;;;;;;5094084;28;20322;-88
2022/05/01 03:36:14;;;;;;;;;;;14.00;74.60;;;;;;5094148;28;19908;-88
2022/05/01 03:38:40;;;;;;;;;;;14.00;74.90;;;;;;5092875;28;19928;-88
2022/05/01 03:41:06;;;;;;;;;;;14.00;75.40;;;;;;5073767;28;19951;-88
2022/05/01 03:43:33;;;;;;;;;;;14.00;74.80;;;;;;5073734;28;19912;-88
2022/05/01 03:45:59;;;;;;;;;;;14.10;75.80;;;;;;5073700;28;19928;-88
2022/05/01 03:48:24;;;;;;;;;;;14.10;76.10;;;;;;5073611;28;20438;-88
2022/05/01 03:50:51;;;;;;;;;;;14.10;76.10;;;;;;5092082;28;19950;-88
2022/05/01 03:53:17;;;;;;;;;;;14.10;74.20;;;;;;5093843;28;19919;-88
2022/05/01 03:55:42;;;;;;;;;;;14.10;72.50;;;;;;5093754;28;19908;-88
2022/05/01 03:58:08;;;;;;;;;;;14.20;71.90;;;;;;5093706;28;19908;-88
2022/05/01 04:00:35;;;;;;;;;;;14.20;71.30;;;;;;5076740;28;19970;-88
2022/05/01 04:03:00;;;;;;;;;;;14.30;71.60;;;;;;5073424;28;19916;-88
2022/05/01 04:05:26;;;;;;;;;;;14.30;73.00;;;;;;5073361;28;19923;-88
2022/05/01 04:07:51;;;;;;;;;;;14.30;74.50;;;;;;5073391;28;19945;-89
2022/05/01 04:10:17;;;;;;;;;;;14.30;75.30;;;;;;5086635;28;19951;-88
2022/05/01 04:12:43;;;;;;;;;;;14.30;75.80;;;;;;5093406;28;19928;-88
2022/05/01 04:15:11;;;;;;;;;;;14.20;74.80;;;;;;5093472;28;19937;-88
2022/05/01 04:17:41;;;;;;;;;;;14.20;74.10;;;;;;5093412;28;19939;-88
2022/05/01 04:20:08;;;;;;;;;;;14.20;73.60;;;;;;5081318;28;19908;-89
2022/05/01 04:22:52;;;;;;;;;;;14.20;72.30;;;;;;5073078;28;20335;-88
2022/05/01 04:25:22;;;;;;;;;;;14.30;73.20;;;;;;5073145;28;19957;-88
2022/05/01 04:27:49;;;;;;;;;;;14.40;73.20;;;;;;5089464;28;20039;-88
2022/05/01 04:30:15;;;;;;;;;;;14.40;71.80;;;;;;5085627;22;19925;-88
2022/05/01 04:32:57;;;;;;;;;;;14.50;71.10;;;;;;5073193;28;19909;-89
2022/05/01 04:35:25;;;;;;;;;;;14.60;72.00;;;;;;5073048;28;20412;-88
2022/05/01 04:37:51;;;;;;;;;;;14.60;72.30;;;;;;5055084;28;19950;-88
2022/05/01 04:40:17;;;;;;;;;;;14.70;73.30;;;;;;5052902;28;20359;-88
2022/05/01 04:42:43;;;;;;;;;;;14.70;74.60;;;;;;5051599;28;19965;-88
2022/05/01 04:45:10;;;;;;;;;;;14.80;75.10;;;;;;5052873;28;20404;-88
2022/05/01 04:47:36;;;;;;;;;;;14.80;72.90;;;;;;5053158;28;19915;-88
2022/05/01 04:50:02;;;;;;;;;;;14.80;69.90;;;;;;5052745;28;19956;-89
2022/05/01 04:52:27;;;;;;;;;;;14.90;68.00;;;;;;5052846;28;19916;-88
2022/05/01 04:54:53;;;;;;;;;;;15.00;69.60;;;;;;5052723;28;19972;-88
2022/05/01 04:57:18;;;;;;;;;;;15.10;72.00;;;;;;5052977;28;19971;-88
2022/05/01 04:59:44;;;;;;;;;;;15.20;71.00;;;;;;5052733;28;19998;-88
2022/05/01 05:02:10;;;;;;;;;;;15.30;69.90;;;;;;5052729;28;19979;-88
2022/05/01 05:04:36;;;;;;;;;;;15.30;68.70;;;;;;5052680;28;20539;-88
2022/05/01 05:07:01;;;;;;;;;;;15.30;68.10;;;;;;5060540;28;19951;-88
2022/05/01 05:12:11;;;;;;;;;;;15.50;68.80;;;;;;5073912;28;19916;-88
2022/05/01 05:14:37;;;;;;;;;;;15.60;68.50;;;;;;5076512;28;19909;-88
2022/05/01 05:17:06;;;;;;;;;;;15.60;68.10;;;;;;5068282;28;20359;-88
2022/05/01 05:19:33;;;;;;;;;;;15.70;67.80;;;;;;5056409;28;19908;-88
2022/05/01 05:21:58;;;;;;;;;;;15.70;66.60;;;;;;5056446;28;19909;-88
2022/05/01 05:24:24;;;;;;;;;;;15.80;65.00;;;;;;5056311;28;19945;-88
2022/05/01 05:26:49;;;;;;;;;;;15.90;66.30;;;;;;5062166;28;20059;-88
2022/05/01 05:29:15;;;;;;;;;;;16.00;64.40;;;;;;5075718;28;20011;-88
2022/05/01 05:31:40;;;;;;;;;;;16.00;65.30;;;;;;5076177;28;19995;-88
2022/05/01 05:34:06;;;;;;;;;;;16.10;65.80;;;;;;5076092;28;20429;-88
2022/05/01 05:36:31;;;;;;;;;;;16.10;64.50;;;;;;5075287;28;20003;-88
2022/05/01 05:38:57;;;;;;;;;;;16.20;65.30;;;;;;5076070;28;20003;-88
2022/05/01 05:41:22;;;;;;;;;;;16.30;65.20;;;;;;5076054;28;19943;-89
2022/05/01 05:43:48;;;;;;;;;;;16.30;64.30;;;;;;5076047;28;20050;-88
2022/05/01 05:46:13;;;;;;;;;;;16.30;64.20;;;;;;5075027;28;19908;-88
2022/05/01 05:48:39;;;;;;;;;;;16.40;64.80;;;;;;5055943;28;19916;-88
2022/05/01 05:51:05;;;;;;;;;;;16.40;63.50;;;;;;5055816;28;19947;-88
2022/05/01 05:53:30;;;;;;;;;;;16.40;63.70;;;;;;5054552;28;20400;-88
2022/05/01 05:55:56;;;;;;;;;;;16.50;63.20;;;;;;5055784;28;20377;-88
2022/05/01 05:58:22;;;;;;;;;;;16.50;62.70;;;;;;5073789;28;19912;-88
2022/05/01 06:00:47;;;;;;;;;;;16.50;61.70;;;;;;5075787;28;19916;-88
2022/05/01 06:03:13;;;;;;;;;;;16.50;61.60;;;;;;5075660;28;19908;-88
2022/05/01 06:05:39;;;;;;;;;;;16.50;61.50;;;;;;5075709;28;20386;-88
2022/05/01 06:08:04;;;;;;;;;;;16.50;62.70;;;;;;5059761;28;20357;-88
2022/05/01 06:10:30;;;;;;;;;;;16.60;61.80;;;;;;5055405;28;19950;-88
2022/05/01 06:12:55;;;;;;;;;;;16.60;62.40;;;;;;5055487;28;19917;-88
2022/05/01 06:15:22;;;;;;;;;;;16.60;62.10;;;;;;5055395;28;20267;-89
2022/05/01 06:17:47;;;;;;;;;;;16.70;60.10;;;;;;5066808;28;19995;-88
2022/05/01 06:20:13;;;;;;;;;;;16.70;61.00;;;;;;5075349;28;20002;-88
2022/05/01 06:22:38;;;;;;;;;;;16.80;60.80;;;;;;5074993;28;19947;-88
2022/05/01 06:25:04;;;;;;;;;;;16.80;61.00;;;;;;5075270;28;19953;-88
2022/05/01 06:27:30;;;;;;;;;;;16.80;61.30;;;;;;5065949;28;20425;-88
2022/05/01 06:29:55;;;;;;;;;;;16.90;58.70;;;;;;5054726;28;19960;-88
2022/05/01 06:32:21;;;;;;;;;;;17.00;59.00;;;;;;5054962;28;19913;-88
2022/05/01 06:34:47;;;;;;;;;;;17.10;58.90;;;;;;5055038;28;19908;-88
2022/05/01 06:37:13;;;;;;;;;;;17.10;59.00;;;;;;5061204;28;19909;-88
2022/05/01 06:39:39;;;;;;;;;;;17.20;58.40;;;;;;5075006;28;19912;-88
2022/05/01 06:42:05;;;;;;;;;;;17.30;58.80;;;;;;5074887;28;19923;-88
2022/05/01 06:44:31;;;;;;;;;;;17.30;58.70;;;;;;5074843;28;19908;-88
2022/05/01 06:46:57;;;;;;;;;;;17.40;57.80;;;;;;5074480;28;20036;-89
2022/05/01 06:49:22;;;;;;;;;;;17.40;57.60;;;;;;5074999;28;20375;-88
2022/05/01 06:51:48;;;;;;;;;;;17.50;57.80;;;;;;5074790;28;19913;-88
2022/05/01 06:54:13;;;;;;;;;;;17.50;57.40;;;;;;5074927;28;20285;-88
2022/05/01 06:56:41;;;;;;;;;;;17.60;57.70;;;;;;5073138;28;20286;-88
2022/05/01 06:59:07;;;;;;;;;;;17.70;57.40;;;;;;5053306;28;20010;-88
2022/05/01 07:01:32;;;;;;;;;;;17.70;58.50;;;;;;5054539;28;20359;-88
2022/05/01 07:03:58;;;;;;;;;;;17.80;57.90;;;;;;5054549;28;19909;-88
2022/05/01 07:06:24;;;;;;;;;;;17.90;57.10;;;;;;5055334;28;20310;-88
2022/05/01 07:08:49;;;;;;;;;;;18.00;56.70;;;;;;5074308;28;20335;-88
2022/05/01 07:11:15;;;;;;;;;;;18.10;56.20;;;;;;5074270;28;19913;-88
2022/05/01 07:13:40;;;;;;;;;;;18.20;54.30;;;;;;5069193;28;19909;-88
2022/05/01 07:16:06;;;;;;;;;;;18.30;55.60;;;;;;5054232;28;19974;-88
2022/05/01 07:18:32;;;;;;;;;;;18.40;54.70;;;;;;5054156;28;19931;-88
2022/05/01 07:20:59;;;;;;;;;;;18.50;54.00;;;;;;5054423;28;20333;-88
2022/05/01 07:23:25;;;;;;;;;;;18.60;53.50;;;;;;5055394;28;19913;-88
2022/05/01 07:25:51;;;;;;;;;;;18.60;53.40;;;;;;5074021;28;19978;-88
2022/05/01 07:28:16;;;;;;;;;;;18.70;52.80;;;;;;5074071;28;19953;-88
2022/05/01 07:30:42;;;;;;;;;;;18.80;51.40;;;;;;5073725;28;20327;-89
2022/05/01 07:33:07;;;;;;;;;;;18.90;53.50;;;;;;5073825;28;20412;-88
2022/05/01 07:35:33;;;;;;;;;;;19.00;52.70;;;;;;5053811;28;19968;-88
2022/05/01 07:37:59;;;;;;;;;;;19.00;52.10;;;;;;5053791;28;19955;-88
2022/05/01 07:40:24;;;;;;;;;;;19.10;52.60;;;;;;5053814;28;19908;-88
2022/05/01 07:42:51;;;;;;;;;;;19.10;52.10;;;;;;5054044;28;19920;-88
2022/05/01 07:45:17;;;;;;;;;;;19.20;51.90;;;;;;5069731;28;19966;-88
2022/05/01 07:47:42;;;;;;;;;;;19.30;51.60;;;;;;5073653;28;19996;-88
2022/05/01 07:50:08;;;;;;;;;;;19.30;51.90;;;;;;5073575;28;19913;-88
2022/05/01 07:52:34;;;;;;;;;;;19.40;51.00;;;;;;5073839;28;19909;-88
2022/05/01 07:55:00;;;;;;;;;;;19.50;50.70;;;;;;5072777;28;19946;-88
2022/05/01 07:57:26;;;;;;;;;;;19.50;52.10;;;;;;5073499;28;20282;-89
2022/05/01 07:59:52;;;;;;;;;;;19.70;51.90;;;;;;5073715;28;19989;-88
2022/05/01 08:02:18;;;;;;;;;;;19.80;48.00;;;;;;5073711;28;20034;-88
2022/05/01 08:04:43;;;;;;;;;;;19.90;47.40;;;;;;5061702;28;20424;-88
2022/05/01 08:07:10;;;;;;;;;;;20.00;47.50;;;;;;5053327;28;20374;-89
2022/05/01 08:09:36;;;;;;;;;;;20.10;47.70;;;;;;5053189;28;20010;-88
2022/05/01 08:12:02;;;;;;;;;;;20.20;46.40;;;;;;5053287;28;19908;-88
2022/05/01 08:14:27;;;;;;;;;;;20.30;46.50;;;;;;5053527;28;19913;-89
2022/05/01 08:16:53;;;;;;;;;;;20.40;45.40;;;;;;5053174;28;19916;-88
2022/05/01 08:22:05;;;;;;;;;;;20.60;44.20;;;;;;5053185;28;19932;-89
2022/05/01 08:24:30;;;;;;;;;;;20.60;43.50;;;;;;5061274;28;19916;-89
2022/05/01 08:26:56;;;;;;;;;;;20.70;43.10;;;;;;5073124;28;19958;-88
2022/05/01 08:29:22;;;;;;;;;;;20.80;43.70;;;;;;5072929;28;19946;-89
2022/05/01 08:31:47;;;;;;;;;;;20.80;44.80;;;;;;5072990;28;19998;-89
2022/05/01 08:34:13;;;;;;;;;;;20.90;45.10;;;;;;5066345;28;19948;-88
2022/05/01 08:36:39;;;;;;;;;;;20.90;43.60;;;;;;5053004;28;19960;-89
2022/05/01 08:39:05;;;;;;;;;;;21.00;43.00;;;;;;5052925;28;19916;-88
2022/05/01 08:41:31;;;;;;;;;;;21.00;43.90;;;;;;5053206;28;19913;-89
2022/05/01 08:43:57;;;;;;;;;;;21.00;43.10;;;;;;5056778;28;19947;-89
2022/05/01 08:46:42;;;;;;;;;;;21.00;43.40;;;;;;5074850;28;19916;-89
2022/05/01 08:49:08;;;;;;;;;;;21.20;43.80;;;;;;5077258;28;19916;-89
2022/05/01 08:51:35;;;;;;;;;;;21.20;42.90;;;;;;5076925;28;19916;-89
2022/05/01 08:54:05;;;;;;;;;;;21.30;43.80;;;;;;5072502;28;19917;-89
2022/05/01 08:56:31;;;;;;;;;;;21.30;43.20;;;;;;5056923;28;20405;-89
2022/05/01 08:58:57;;;;;;;;;;;21.40;44.00;;;;;;5056885;28;19909;-89
2022/05/01 09:01:22;;;;;;;;;;;21.30;43.90;;;;;;5056841;28;20355;-89
2022/05/01 09:03:48;;;;;;;;;;;21.20;43.90;;;;;;5056735;28;19908;-88
2022/05/01 09:06:13;;;;;;;;;;;21.20;43.90;;;;;;5056729;28;19909;-88
2022/05/01 09:08:42;;;;;;;;;;;21.20;43.50;;;;;;5056646;28;19909;-88
2022/05/01 09:13:52;;;;;;;;;;;21.20;43.80;;;;;;5057153;28;20414;-88
2022/05/01 09:16:18;;;;;;;;;;;21.20;44.90;;;;;;5056551;28;20377;-89
2022/05/01 09:18:44;;;;;;;;;;;21.30;44.20;;;;;;5056534;28;19912;-89
2022/05/01 09:21:10;;;;;;;;;;;21.40;46.20;;;;;;5056515;28;19908;-89
2022/05/01 09:23:38;;;;;;;;;;;21.50;44.40;;;;;;5056407;28;20343;-88
2022/05/01 09:26:04;;;;;;;;;;;21.60;44.60;;;;;;5076339;28;20418;-88
2022/05/01 09:28:30;;;;;;;;;;;21.70;45.00;;;;;;5076291;28;19908;-89
2022/05/01 09:30:55;;;;;;;;;;;21.80;43.90;;;;;;5076049;28;19927;-89
2022/05/01 09:33:21;;;;;;;;;;;21.80;44.20;;;;;;5076150;28;19908;-89
2022/05/01 09:35:47;;;;;;;;;;;21.80;44.70;;;;;;5057933;28;19917;-89
2022/05/01 09:38:13;;;;;;;;;;;22.00;46.60;;;;;;5056192;28;19909;-89
2022/05/01 09:40:38;;;;;;;;;;;22.10;44.90;;;;;;5056111;28;20023;-89
2022/05/01 09:43:04;;;;;;;;;;;22.30;43.70;;;;;;5056063;28;19909;-89
2022/05/01 09:45:33;;;;;;;;;;;22.40;43.20;;;;;;5057076;28;19913;-89
2022/05/01 09:47:59;;;;;;;;;;;22.50;43.60;;;;;;5056203;28;19916;-89
2022/05/01 09:50:43;;;;;;;;;;;22.60;40.30;;;;;;5056071;28;19913;-89
2022/05/01 09:53:09;;;;;;;;;;;22.50;39.30;;;;;;5055945;28;19909;-88
2022/05/01 09:55:35;;;;;;;;;;;22.40;39.70;;;;;;5071614;28;19958;-88
2022/05/01 09:58:08;;;;;;;;;;;22.50;40.00;;;;;;5075103;28;19917;-89
2022/05/01 10:00:35;;;;;;;;;;;22.60;42.10;;;;;;5075776;28;19909;-89
2022/05/01 10:03:18;;;;;;;;;;;22.80;43.60;;;;;;5075746;28;19912;-89
2022/05/01 10:05:44;;;;;;;;;;;22.80;42.30;;;;;;5058324;28;19913;-89
2022/05/01 10:08:11;;;;;;;;;;;22.80;41.20;;;;;;5055576;28;20405;-89
2022/05/01 10:10:37;;;;;;;;;;;22.80;41.00;;;;;;5055488;28;19960;-89
2022/05/01 10:13:03;;;;;;;;;;;22.90;43.80;;;;;;5055530;28;19948;-89
2022/05/01 10:15:28;;;;;;;;;;;22.90;42.10;;;;;;5070026;28;20014;-89
2022/05/01 10:17:54;;;;;;;;;;;23.00;39.10;;;;;;5075431;28;20401;-89
2022/05/01 10:20:20;;;;;;;;;;;23.00;39.00;;;;;;5075350;28;19916;-89
2022/05/01 10:22:46;;;;;;;;;;;23.00;42.20;;;;;;5074178;28;20351;-89
2022/05/01 10:25:16;;;;;;;;;;;23.00;40.60;;;;;;5074777;28;19915;-89
2022/05/01 10:27:47;;;;;;;;;;;23.10;40.00;;;;;;5075290;28;19915;-89
2022/05/01 10:33:06;;;;;;;;;;;23.30;41.60;;;;;;5075339;28;20524;-89
2022/05/01 10:35:51;;;;;;;;;;;23.40;42.10;;;;;;5060103;28;19984;-89
2022/05/01 10:38:17;;;;;;;;;;;23.60;41.90;;;;;;5055015;28;20282;-90
2022/05/01 10:40:54;;;;;;;;;;;23.60;37.70;;;;;;5054971;28;19909;-88
2022/05/01 10:43:24;;;;;;;;;;;23.60;38.50;;;;;;5054929;28;20417;-89
2022/05/01 10:45:51;;;;;;;;;;;23.70;38.20;;;;;;5071745;28;19919;-89
2022/05/01 10:48:27;;;;;;;;;;;23.90;36.70;;;;;;5074906;28;19908;-89
2022/05/01 10:50:54;;;;;;;;;;;24.00;37.80;;;;;;5074703;28;20354;-89
2022/05/01 10:53:20;;;;;;;;;;;24.00;37.80;;;;;;5074790;28;19978;-89
2022/05/01 10:55:48;;;;;;;;;;;24.10;39.90;;;;;;5074116;28;20264;-89
2022/05/01 10:58:20;;;;;;;;;;;24.30;39.30;;;;;;5074882;28;19908;-89
2022/05/01 11:00:46;;;;;;;;;;;24.60;39.50;;;;;;5074557;28;20412;-89
2022/05/01 11:03:41;;;;;;;;;;;24.90;38.20;;;;;;5074649;28;19908;-89
2022/05/01 11:06:08;;;;;;;;;;;25.00;36.40;;;;;;5041949;28;19939;-89
2022/05/01 11:08:36;;;;;;;;;;;24.70;37.10;;;;;;5053057;28;19909;-89
2022/05/01 11:11:02;;;;;;;;;;;24.70;34.90;;;;;;5053416;28;19913;-89
2022/05/01 11:13:32;;;;;;;;;;;24.50;37.50;;;;;;5054401;28;19908;-89
2022/05/01 11:15:58;;;;;;;;;;;24.20;38.20;;;;;;5071752;28;20362;-89
2022/05/01 11:18:28;;;;;;;;;;;23.80;37.20;;;;;;5074491;28;19915;-89
2022/05/01 11:20:54;;;;;;;;;;;23.70;38.30;;;;;;5074134;28;19908;-88
2022/05/01 11:23:30;;;;;;;;;;;23.60;36.60;;;;;;5074169;28;19915;-89
2022/05/01 11:26:09;;;;;;;;;;;23.30;38.10;;;;;;5074084;28;19912;-89
2022/05/01 11:28:42;;;;;;;;;;;23.20;38.00;;;;;;5074306;28;19908;-89
2022/05/01 11:31:26;;;;;;;;;;;23.10;37.80;;;;;;5073813;28;20370;-89
2022/05/01 11:34:11;;;;;;;;;;;23.10;36.80;;;;;;5073649;28;19909;-89
2022/05/01 11:36:55;;;;;;;;;;;23.00;36.70;;;;;;5034020;28;19909;-89
2022/05/01 11:39:20;;;;;;;;;;;22.90;36.60;;;;;;5033976;28;19952;-88
2022/05/01 11:41:51;;;;;;;;;;;22.80;36.70;;;;;;5033923;28;19951;-89
2022/05/01 11:44:24;;;;;;;;;;;22.80;36.60;;;;;;5039939;28;19930;-89
2022/05/01 11:46:49;;;;;;;;;;;22.80;37.50;;;;;;5073731;28;19908;-89
2022/05/01 11:49:15;;;;;;;;;;;22.80;38.30;;;;;;5073996;28;19916;-89
2022/05/01 11:51:40;;;;;;;;;;;23.00;37.70;;;;;;5067791;28;19930;-89
2022/05/01 11:54:09;;;;;;;;;;;23.60;38.00;;;;;;5052372;28;19948;-89
2022/05/01 12:04:47;;;;;;;;;;;23.50;39.60;;;;;;5053431;28;19955;-89
2022/05/01 12:07:16;;;;;;;;;;;22.60;41.80;;;;;;5053413;28;19971;-88
2022/05/01 12:09:43;;;;;;;;;;;22.00;43.70;;;;;;5053157;28;19949;-89
2022/05/01 12:12:13;;;;;;;;;;;22.20;44.00;;;;;;5053525;28;19943;-89
2022/05/01 12:14:39;;;;;;;;;;;22.50;44.50;;;;;;5053371;28;19908;-89
2022/05/01 12:17:12;;;;;;;;;;;22.30;43.90;;;;;;5053220;28;20424;-89
2022/05/01 12:19:39;;;;;;;;;;;21.90;44.40;;;;;;5053253;28;19970;-89
2022/05/01 12:22:05;;;;;;;;;;;21.90;45.40;;;;;;5060787;28;19938;-88
2022/05/01 12:24:32;;;;;;;;;;;21.70;45.50;;;;;;5073515;28;19973;-90
2022/05/01 12:26:58;;;;;;;;;;;21.50;44.80;;;;;;5073501;28;19963;-89
2022/05/01 12:29:23;;;;;;;;;;;21.40;51.80;;;;;;5080711;22;19959;-89
2022/05/01 12:32:10;;;;;;;;;;;20.60;54.10;;;;;;5066646;28;20467;-88
2022/05/01 12:34:38;;;;;;;;;;;19.60;49.10;;;;;;5053001;28;19913;-88
2022/05/01 12:37:05;;;;;;;;;;;18.90;54.20;;;;;;5053219;28;19916;-88
2022/05/01 12:39:31;;;;;;;;;;;18.50;54.60;;;;;;5053227;28;19923;-88
2022/05/01 12:45:02;;;;;;;;;;;18.10;53.30;;;;;;5073609;28;19966;-88
2022/05/01 12:47:30;;;;;;;;;;;18.00;57.30;;;;;;5072972;28;20165;-88
2022/05/01 12:49:56;;;;;;;;;;;18.00;54.80;;;;;;5072850;28;19917;-88
2022/05/01 12:52:35;;;;;;;;;;;18.10;53.90;;;;;;5062821;28;19951;-88
2022/05/01 12:55:19;;;;;;;;;;;18.10;58.50;;;;;;5052894;28;19916;-88
2022/05/01 12:57:51;;;;;;;;;;;18.10;58.00;;;;;;5053087;28;19909;-88
2022/05/01 13:00:30;;;;;;;;;;;18.10;58.80;;;;;;5052834;28;20477;-88
2022/05/01 13:03:14;;;;;;;;;;;18.00;59.10;;;;;;5066973;28;19913;-88
2022/05/01 13:05:40;;;;;;;;;;;17.90;57.90;;;;;;5072778;28;19946;-88
2022/05/01 13:08:16;;;;;;;;;;;17.80;62.20;;;;;;5072795;28;19909;-88
2022/05/01 13:10:41;;;;;;;;;;;17.70;59.60;;;;;;5072617;28;20342;-88
2022/05/01 13:13:07;;;;;;;;;;;17.70;63.10;;;;;;5056734;28;20008;-88
2022/05/01 13:15:37;;;;;;;;;;;17.60;65.90;;;;;;5052681;28;19995;-88
2022/05/01 13:18:03;;;;;;;;;;;17.40;62.10;;;;;;5052642;28;19999;-88
2022/05/01 13:20:29;;;;;;;;;;;17.40;64.70;;;;;;5052703;28;19960;-88
2022/05/01 13:22:54;;;;;;;;;;;17.20;61.50;;;;;;5066265;28;19924;-88
2022/05/01 13:25:20;;;;;;;;;;;17.10;64.50;;;;;;5072887;28;19909;-88
2022/05/01 13:27:45;;;;;;;;;;;16.90;65.40;;;;;;5072606;28;19908;-88
2022/05/01 13:30:11;;;;;;;;;;;16.80;65.40;;;;;;5072341;28;19924;-87
2022/05/01 13:32:37;;;;;;;;;;;16.70;67.40;;;;;;5061171;28;19913;-88
2022/05/01 13:35:02;;;;;;;;;;;16.70;68.50;;;;;;5056255;28;20371;-88
2022/05/01 13:37:30;;;;;;;;;;;16.60;69.70;;;;;;5056239;28;19936;-88
2022/05/01 13:45:24;;;;;;;;;;;16.70;68.20;;;;;;5076095;28;19915;-88
2022/05/01 13:47:49;;;;;;;;;;;16.80;67.30;;;;;;5076055;28;19909;-88
2022/05/01 13:50:15;;;;;;;;;;;16.80;67.50;;;;;;5076175;28;19913;-88
2022/05/01 13:52:41;;;;;;;;;;;16.80;67.90;;;;;;5064361;28;19917;-88
2022/05/01 13:55:07;;;;;;;;;;;16.90;67.20;;;;;;5055881;28;19939;-88
2022/05/01 13:57:34;;;;;;;;;;;16.90;67.40;;;;;;5055869;28;19944;-88
2022/05/01 14:00:00;;;;;;;;;;;16.90;68.80;;;;;;5055797;28;20350;-88
2022/05/01 14:02:25;;;;;;;;;;;16.80;66.70;;;;;;5064318;28;19958;-88
2022/05/01 14:04:51;;;;;;;;;;;16.80;65.50;;;;;;5075697;28;20003;-88
2022/05/01 14:07:17;;;;;;;;;;;16.90;64.60;;;;;;5075686;28;19999;-88
2022/05/01 14:09:42;;;;;;;;;;;17.00;65.60;;;;;;5075684;28;20000;-88
2022/05/01 14:12:09;;;;;;;;;;;17.00;66.70;;;;;;5068828;28;20286;-88
2022/05/01 14:14:35;;;;;;;;;;;17.10;67.70;;;;;;5055556;28;20381;-88
2022/05/01 14:17:00;;;;;;;;;;;17.20;68.40;;;;;;5055440;28;19987;-88
2022/05/01 14:19:27;;;;;;;;;;;17.30;67.00;;;;;;5055378;28;20256;-88
2022/05/01 14:21:55;;;;;;;;;;;17.30;67.30;;;;;;5059435;28;19912;-88
2022/05/01 14:24:21;;;;;;;;;;;17.40;67.00;;;;;;5075337;28;19913;-88
2022/05/01 14:26:47;;;;;;;;;;;17.40;66.90;;;;;;5075272;28;19927;-88
2022/05/01 14:29:12;;;;;;;;;;;17.50;67.20;;;;;;5073567;28;19959;-88
2022/05/01 14:31:45;;;;;;;;;;;17.50;64.10;;;;;;5075030;28;19916;-88
2022/05/01 14:34:24;;;;;;;;;;;17.50;64.00;;;;;;5075141;28;20371;-88
2022/05/01 14:36:53;;;;;;;;;;;17.60;64.30;;;;;;5075055;28;19924;-88
2022/05/01 14:39:21;;;;;;;;;;;17.70;64.10;;;;;;5072665;28;19908;-88
2022/05/01 14:41:50;;;;;;;;;;;17.80;65.10;;;;;;5054958;28;19913;-89
2022/05/01 14:44:28;;;;;;;;;;;17.80;65.20;;;;;;5054675;28;19909;-88
2022/05/01 14:46:57;;;;;;;;;;;17.90;65.50;;;;;;5054927;28;19909;-88
2022/05/01 14:49:31;;;;;;;;;;;17.90;66.20;;;;;;5056912;28;19966;-89
2022/05/01 14:51:58;;;;;;;;;;;18.00;65.50;;;;;;5074867;28;20370;-88
2022/05/01 14:54:27;;;;;;;;;;;18.10;68.60;;;;;;5074802;28;19913;-88